aviador You're here:

KVNY Decoded Metar

VAN NUYS in CA, USA
Report Time2017-09-24 05:51:00
UTC Time2017-09-24 06:54:50
Flight Rules vfr VFR
WindCalm
Visibility9999 m
Phenomena:N/A
Clouds:N/A
Expected CloudBase > 4,400 ft AGL from Temp-Dew spread
CeilingNone
Temp17°C (ISA +4)
Dew Point06°C (49% RH)
AAT16.1°C
QNH1011 hPa
Density Alt1,424 ft
Elevation804 ft
Report Wrong Elevation
Raw Report
METAR KVNY 240551Z AUTO 00000KT 10SM CLR 17/06 A2985 RMK AO2 SLP099
T01720061 10233 20172 51002=

Extra information for KVNY:More info

Metar Taf Metar & Taf Last 4 Metars F.Rules Stats Wind Profile Meteogram Temp Stats Airport Information Weather charts Add Link Nearby VenuesMetar ALERT Operation Metar Decoded Social comments

AIRNAV info for KVNY